sensor_id;sensor_type;location;lat;lon;timestamp;P1;durP1;ratioP1;P2;durP2;ratioP2
2972;SDS011;1496;51.404;7.232;2022-09-02T00:01:14;3.73;;;1.47;;
2972;SDS011;1496;51.404;7.232;2022-09-02T00:03:44;3.10;;;2.30;;
2972;SDS011;1496;51.404;7.232;2022-09-02T00:06:10;3.40;;;1.60;;
2972;SDS011;1496;51.404;7.232;2022-09-02T00:08:37;4.33;;;2.10;;
2972;SDS011;1496;51.404;7.232;2022-09-02T00:11:04;4.60;;;2.00;;
2972;SDS011;1496;51.404;7.232;2022-09-02T00:13:32;3.00;;;1.50;;
2972;SDS011;1496;51.404;7.232;2022-09-02T00:16:00;8.10;;;1.57;;
2972;SDS011;1496;51.404;7.232;2022-09-02T00:18:27;5.80;;;1.90;;
2972;SDS011;1496;51.404;7.232;2022-09-02T00:20:53;4.20;;;2.00;;
2972;SDS011;1496;51.404;7.232;2022-09-02T00:23:18;3.10;;;1.60;;
2972;SDS011;1496;51.404;7.232;2022-09-02T00:25:44;3.60;;;1.70;;
2972;SDS011;1496;51.404;7.232;2022-09-02T00:28:11;2.30;;;1.63;;
2972;SDS011;1496;51.404;7.232;2022-09-02T00:30:39;3.13;;;1.73;;
2972;SDS011;1496;51.404;7.232;2022-09-02T00:33:05;2.57;;;1.67;;
2972;SDS011;1496;51.404;7.232;2022-09-02T00:35:31;2.63;;;1.80;;
2972;SDS011;1496;51.404;7.232;2022-09-02T00:37:58;3.07;;;1.60;;
2972;SDS011;1496;51.404;7.232;2022-09-02T00:40:24;4.77;;;1.87;;
2972;SDS011;1496;51.404;7.232;2022-09-02T00:42:51;3.53;;;1.70;;
2972;SDS011;1496;51.404;7.232;2022-09-02T00:45:17;1.97;;;1.33;;
2972;SDS011;1496;51.404;7.232;2022-09-02T00:47:44;3.10;;;1.80;;
2972;SDS011;1496;51.404;7.232;2022-09-02T00:50:11;3.90;;;1.60;;
2972;SDS011;1496;51.404;7.232;2022-09-02T00:52:40;4.77;;;1.90;;
2972;SDS011;1496;51.404;7.232;2022-09-02T00:55:11;2.20;;;1.37;;
2972;SDS011;1496;51.404;7.232;2022-09-02T00:57:45;6.33;;;2.17;;
2972;SDS011;1496;51.404;7.232;2022-09-02T01:02:48;3.60;;;2.03;;
2972;SDS011;1496;51.404;7.232;2022-09-02T01:05:18;4.63;;;2.13;;
2972;SDS011;1496;51.404;7.232;2022-09-02T01:07:45;3.30;;;1.50;;
2972;SDS011;1496;51.404;7.232;2022-09-02T01:10:16;2.13;;;1.70;;
2972;SDS011;1496;51.404;7.232;2022-09-02T01:12:46;5.40;;;1.70;;
2972;SDS011;1496;51.404;7.232;2022-09-02T01:15:12;2.90;;;1.77;;
2972;SDS011;1496;51.404;7.232;2022-09-02T01:17:40;6.90;;;1.60;;
2972;SDS011;1496;51.404;7.232;2022-09-02T01:20:11;9.90;;;2.13;;
2972;SDS011;1496;51.404;7.232;2022-09-02T01:22:40;2.77;;;2.20;;
2972;SDS011;1496;51.404;7.232;2022-09-02T01:25:12;3.23;;;1.70;;
2972;SDS011;1496;51.404;7.232;2022-09-02T01:27:40;3.30;;;1.50;;
2972;SDS011;1496;51.404;7.232;2022-09-02T01:30:08;5.93;;;1.90;;
2972;SDS011;1496;51.404;7.232;2022-09-02T01:32:35;2.60;;;1.93;;
2972;SDS011;1496;51.404;7.232;2022-09-02T01:35:01;4.43;;;1.87;;
2972;SDS011;1496;51.404;7.232;2022-09-02T01:37:28;5.50;;;1.80;;
2972;SDS011;1496;51.404;7.232;2022-09-02T01:39:54;4.13;;;2.13;;
2972;SDS011;1496;51.404;7.232;2022-09-02T01:42:23;3.00;;;2.00;;
2972;SDS011;1496;51.404;7.232;2022-09-02T01:44:49;2.53;;;2.13;;
2972;SDS011;1496;51.404;7.232;2022-09-02T01:47:20;3.13;;;2.50;;
2972;SDS011;1496;51.404;7.232;2022-09-02T01:49:48;5.83;;;2.30;;
2972;SDS011;1496;51.404;7.232;2022-09-02T01:52:16;5.27;;;2.00;;
2972;SDS011;1496;51.404;7.232;2022-09-02T01:54:44;5.80;;;2.60;;
2972;SDS011;1496;51.404;7.232;2022-09-02T01:57:11;4.50;;;2.90;;
2972;SDS011;1496;51.404;7.232;2022-09-02T01:59:37;3.20;;;1.90;;
2972;SDS011;1496;51.404;7.232;2022-09-02T02:02:03;4.23;;;2.23;;
2972;SDS011;1496;51.404;7.232;2022-09-02T02:04:31;8.37;;;2.30;;
2972;SDS011;1496;51.404;7.232;2022-09-02T02:06:57;2.80;;;2.50;;
2972;SDS011;1496;51.404;7.232;2022-09-02T02:09:24;7.03;;;3.03;;
2972;SDS011;1496;51.404;7.232;2022-09-02T02:11:50;7.30;;;2.70;;
2972;SDS011;1496;51.404;7.232;2022-09-02T02:14:17;3.40;;;2.27;;
2972;SDS011;1496;51.404;7.232;2022-09-02T02:16:45;4.17;;;2.60;;
2972;SDS011;1496;51.404;7.232;2022-09-02T02:19:12;4.10;;;2.27;;
2972;SDS011;1496;51.404;7.232;2022-09-02T02:21:38;4.23;;;1.63;;
2972;SDS011;1496;51.404;7.232;2022-09-02T02:24:04;2.67;;;1.70;;
2972;SDS011;1496;51.404;7.232;2022-09-02T02:26:32;3.73;;;2.00;;
2972;SDS011;1496;51.404;7.232;2022-09-02T02:29:00;3.10;;;1.70;;
2972;SDS011;1496;51.404;7.232;2022-09-02T02:31:26;5.63;;;2.03;;
2972;SDS011;1496;51.404;7.232;2022-09-02T02:33:53;3.90;;;2.00;;
2972;SDS011;1496;51.404;7.232;2022-09-02T02:36:19;1.87;;;1.63;;
2972;SDS011;1496;51.404;7.232;2022-09-02T02:38:46;2.73;;;1.70;;
2972;SDS011;1496;51.404;7.232;2022-09-02T02:41:12;2.57;;;1.57;;
2972;SDS011;1496;51.404;7.232;2022-09-02T02:43:39;9.03;;;1.57;;
2972;SDS011;1496;51.404;7.232;2022-09-02T02:46:05;4.03;;;1.60;;
2972;SDS011;1496;51.404;7.232;2022-09-02T02:48:32;4.50;;;1.90;;
2972;SDS011;1496;51.404;7.232;2022-09-02T02:50:59;2.80;;;2.30;;
2972;SDS011;1496;51.404;7.232;2022-09-02T02:53:26;4.17;;;1.70;;
2972;SDS011;1496;51.404;7.232;2022-09-02T02:55:54;6.40;;;1.83;;
2972;SDS011;1496;51.404;7.232;2022-09-02T02:58:21;4.40;;;1.70;;
2972;SDS011;1496;51.404;7.232;2022-09-02T03:00:47;2.70;;;1.70;;
2972;SDS011;1496;51.404;7.232;2022-09-02T03:03:14;2.10;;;1.60;;
2972;SDS011;1496;51.404;7.232;2022-09-02T03:05:46;2.13;;;1.17;;
2972;SDS011;1496;51.404;7.232;2022-09-02T03:08:14;2.43;;;1.60;;
2972;SDS011;1496;51.404;7.232;2022-09-02T03:10:41;2.47;;;1.50;;
2972;SDS011;1496;51.404;7.232;2022-09-02T03:13:09;2.47;;;1.60;;
2972;SDS011;1496;51.404;7.232;2022-09-02T03:15:36;2.40;;;1.40;;
2972;SDS011;1496;51.404;7.232;2022-09-02T03:18:03;4.07;;;1.70;;
2972;SDS011;1496;51.404;7.232;2022-09-02T03:20:30;1.77;;;1.60;;
2972;SDS011;1496;51.404;7.232;2022-09-02T03:22:59;2.77;;;1.80;;
2972;SDS011;1496;51.404;7.232;2022-09-02T03:25:27;2.63;;;1.70;;
2972;SDS011;1496;51.404;7.232;2022-09-02T03:27:55;3.63;;;1.83;;
2972;SDS011;1496;51.404;7.232;2022-09-02T03:30:22;2.80;;;1.77;;
2972;SDS011;1496;51.404;7.232;2022-09-02T03:32:50;2.93;;;1.50;;
2972;SDS011;1496;51.404;7.232;2022-09-02T03:35:18;4.67;;;2.03;;
2972;SDS011;1496;51.404;7.232;2022-09-02T03:37:45;2.90;;;1.70;;
2972;SDS011;1496;51.404;7.232;2022-09-02T03:40:13;3.57;;;2.23;;
2972;SDS011;1496;51.404;7.232;2022-09-02T03:42:41;2.63;;;1.80;;
2972;SDS011;1496;51.404;7.232;2022-09-02T03:45:07;4.57;;;1.90;;
2972;SDS011;1496;51.404;7.232;2022-09-02T03:47:35;2.90;;;2.03;;
2972;SDS011;1496;51.404;7.232;2022-09-02T03:50:05;2.00;;;1.63;;
2972;SDS011;1496;51.404;7.232;2022-09-02T03:52:31;4.07;;;2.17;;
2972;SDS011;1496;51.404;7.232;2022-09-02T03:54:56;5.23;;;1.80;;
2972;SDS011;1496;51.404;7.232;2022-09-02T03:57:23;4.33;;;1.70;;
2972;SDS011;1496;51.404;7.232;2022-09-02T03:59:51;3.27;;;1.93;;
2972;SDS011;1496;51.404;7.232;2022-09-02T04:02:17;3.63;;;2.30;;
2972;SDS011;1496;51.404;7.232;2022-09-02T04:04:44;3.43;;;2.13;;
2972;SDS011;1496;51.404;7.232;2022-09-02T04:07:09;2.73;;;1.90;;
2972;SDS011;1496;51.404;7.232;2022-09-02T04:09:35;3.27;;;2.47;;
2972;SDS011;1496;51.404;7.232;2022-09-02T04:12:04;3.10;;;2.20;;
2972;SDS011;1496;51.404;7.232;2022-09-02T04:14:31;3.93;;;2.07;;
2972;SDS011;1496;51.404;7.232;2022-09-02T04:16:57;2.53;;;1.77;;
2972;SDS011;1496;51.404;7.232;2022-09-02T04:19:35;3.40;;;2.17;;
2972;SDS011;1496;51.404;7.232;2022-09-02T04:22:02;9.23;;;2.67;;
2972;SDS011;1496;51.404;7.232;2022-09-02T04:24:29;3.20;;;2.30;;
2972;SDS011;1496;51.404;7.232;2022-09-02T04:26:55;11.60;;;2.43;;
2972;SDS011;1496;51.404;7.232;2022-09-02T04:29:20;7.33;;;2.40;;
2972;SDS011;1496;51.404;7.232;2022-09-02T04:31:50;4.73;;;2.27;;
2972;SDS011;1496;51.404;7.232;2022-09-02T04:34:17;9.27;;;2.30;;
2972;SDS011;1496;51.404;7.232;2022-09-02T04:36:45;2.60;;;2.10;;
2972;SDS011;1496;51.404;7.232;2022-09-02T04:39:12;5.00;;;2.60;;
2972;SDS011;1496;51.404;7.232;2022-09-02T04:41:38;2.37;;;1.90;;
2972;SDS011;1496;51.404;7.232;2022-09-02T04:44:07;3.50;;;2.17;;
2972;SDS011;1496;51.404;7.232;2022-09-02T04:46:37;4.20;;;2.30;;
2972;SDS011;1496;51.404;7.232;2022-09-02T04:49:06;7.77;;;2.40;;
2972;SDS011;1496;51.404;7.232;2022-09-02T04:51:32;6.70;;;2.47;;
2972;SDS011;1496;51.404;7.232;2022-09-02T04:54:00;5.77;;;2.63;;
2972;SDS011;1496;51.404;7.232;2022-09-02T04:56:27;11.63;;;3.00;;
2972;SDS011;1496;51.404;7.232;2022-09-02T04:58:56;5.77;;;3.00;;
2972;SDS011;1496;51.404;7.232;2022-09-02T05:01:26;6.40;;;3.10;;
2972;SDS011;1496;51.404;7.232;2022-09-02T05:03:57;5.33;;;3.20;;
2972;SDS011;1496;51.404;7.232;2022-09-02T05:06:29;5.73;;;3.53;;
2972;SDS011;1496;51.404;7.232;2022-09-02T05:08:57;8.43;;;4.20;;
2972;SDS011;1496;51.404;7.232;2022-09-02T05:11:27;10.23;;;3.90;;
2972;SDS011;1496;51.404;7.232;2022-09-02T05:13:55;7.40;;;3.80;;
2972;SDS011;1496;51.404;7.232;2022-09-02T05:16:25;10.43;;;3.80;;
2972;SDS011;1496;51.404;7.232;2022-09-02T05:18:53;11.10;;;3.70;;
2972;SDS011;1496;51.404;7.232;2022-09-02T05:21:22;15.23;;;4.57;;
2972;SDS011;1496;51.404;7.232;2022-09-02T05:23:50;8.70;;;3.70;;
2972;SDS011;1496;51.404;7.232;2022-09-02T05:26:16;10.80;;;3.87;;
2972;SDS011;1496;51.404;7.232;2022-09-02T05:28:42;5.10;;;3.17;;
2972;SDS011;1496;51.404;7.232;2022-09-02T05:31:10;6.43;;;2.90;;
2972;SDS011;1496;51.404;7.232;2022-09-02T05:33:38;8.13;;;3.73;;
2972;SDS011;1496;51.404;7.232;2022-09-02T05:36:07;6.20;;;3.10;;
2972;SDS011;1496;51.404;7.232;2022-09-02T05:38:37;5.50;;;3.10;;
2972;SDS011;1496;51.404;7.232;2022-09-02T05:41:04;7.43;;;3.73;;
2972;SDS011;1496;51.404;7.232;2022-09-02T05:43:36;6.03;;;3.27;;
2972;SDS011;1496;51.404;7.232;2022-09-02T05:46:06;8.63;;;3.43;;
2972;SDS011;1496;51.404;7.232;2022-09-02T05:48:36;10.33;;;3.43;;
2972;SDS011;1496;51.404;7.232;2022-09-02T05:51:21;9.23;;;4.10;;
2972;SDS011;1496;51.404;7.232;2022-09-02T05:53:50;6.67;;;3.50;;
2972;SDS011;1496;51.404;7.232;2022-09-02T05:56:18;8.27;;;3.70;;
2972;SDS011;1496;51.404;7.232;2022-09-02T05:58:45;5.73;;;2.87;;
2972;SDS011;1496;51.404;7.232;2022-09-02T06:01:12;10.27;;;2.90;;
2972;SDS011;1496;51.404;7.232;2022-09-02T06:03:38;7.57;;;3.03;;
2972;SDS011;1496;51.404;7.232;2022-09-02T06:06:06;9.33;;;3.37;;
2972;SDS011;1496;51.404;7.232;2022-09-02T06:08:35;6.53;;;2.50;;
2972;SDS011;1496;51.404;7.232;2022-09-02T06:11:01;6.50;;;3.17;;
2972;SDS011;1496;51.404;7.232;2022-09-02T06:13:28;3.50;;;2.77;;
2972;SDS011;1496;51.404;7.232;2022-09-02T06:15:55;6.50;;;2.90;;
2972;SDS011;1496;51.404;7.232;2022-09-02T06:18:24;4.97;;;3.00;;
2972;SDS011;1496;51.404;7.232;2022-09-02T06:20:50;10.60;;;3.00;;
2972;SDS011;1496;51.404;7.232;2022-09-02T06:23:16;6.40;;;2.90;;
2972;SDS011;1496;51.404;7.232;2022-09-02T06:25:44;6.77;;;3.03;;
2972;SDS011;1496;51.404;7.232;2022-09-02T06:28:11;10.07;;;3.40;;
2972;SDS011;1496;51.404;7.232;2022-09-02T06:30:43;4.60;;;2.63;;
2972;SDS011;1496;51.404;7.232;2022-09-02T06:33:10;4.30;;;2.77;;
2972;SDS011;1496;51.404;7.232;2022-09-02T06:35:39;8.40;;;3.60;;
2972;SDS011;1496;51.404;7.232;2022-09-02T06:38:09;8.33;;;3.23;;
2972;SDS011;1496;51.404;7.232;2022-09-02T06:40:49;10.40;;;3.13;;
2972;SDS011;1496;51.404;7.232;2022-09-02T06:43:22;4.57;;;2.80;;
2972;SDS011;1496;51.404;7.232;2022-09-02T06:46:02;7.80;;;3.10;;
2972;SDS011;1496;51.404;7.232;2022-09-02T06:48:28;9.20;;;3.10;;
2972;SDS011;1496;51.404;7.232;2022-09-02T06:50:55;8.63;;;3.10;;
2972;SDS011;1496;51.404;7.232;2022-09-02T06:53:21;4.80;;;2.70;;
2972;SDS011;1496;51.404;7.232;2022-09-02T06:55:48;9.03;;;4.10;;
2972;SDS011;1496;51.404;7.232;2022-09-02T06:58:14;6.40;;;2.80;;
2972;SDS011;1496;51.404;7.232;2022-09-02T07:00:40;11.93;;;2.97;;
2972;SDS011;1496;51.404;7.232;2022-09-02T07:03:08;5.57;;;3.30;;
2972;SDS011;1496;51.404;7.232;2022-09-02T07:06:01;10.50;;;3.00;;
2972;SDS011;1496;51.404;7.232;2022-09-02T07:08:39;8.63;;;3.73;;
2972;SDS011;1496;51.404;7.232;2022-09-02T07:11:11;11.70;;;3.47;;
2972;SDS011;1496;51.404;7.232;2022-09-02T07:13:49;11.50;;;3.73;;
2972;SDS011;1496;51.404;7.232;2022-09-02T07:16:16;5.83;;;3.67;;
2972;SDS011;1496;51.404;7.232;2022-09-02T07:18:43;6.30;;;3.57;;
2972;SDS011;1496;51.404;7.232;2022-09-02T07:21:10;6.80;;;3.67;;
2972;SDS011;1496;51.404;7.232;2022-09-02T07:23:38;8.83;;;3.60;;
2972;SDS011;1496;51.404;7.232;2022-09-02T07:26:12;9.73;;;3.80;;
2972;SDS011;1496;51.404;7.232;2022-09-02T07:28:41;9.13;;;3.60;;
2972;SDS011;1496;51.404;7.232;2022-09-02T07:31:09;5.40;;;2.60;;
2972;SDS011;1496;51.404;7.232;2022-09-02T07:33:35;7.30;;;3.50;;
2972;SDS011;1496;51.404;7.232;2022-09-02T07:36:05;10.93;;;3.60;;
2972;SDS011;1496;51.404;7.232;2022-09-02T07:38:33;11.53;;;3.07;;
2972;SDS011;1496;51.404;7.232;2022-09-02T07:40:59;8.67;;;3.33;;
2972;SDS011;1496;51.404;7.232;2022-09-02T07:43:29;7.23;;;2.90;;
2972;SDS011;1496;51.404;7.232;2022-09-02T07:45:56;7.33;;;3.67;;
2972;SDS011;1496;51.404;7.232;2022-09-02T07:48:26;11.63;;;4.40;;
2972;SDS011;1496;51.404;7.232;2022-09-02T07:50:54;9.90;;;3.60;;
2972;SDS011;1496;51.404;7.232;2022-09-02T07:53:21;6.47;;;3.13;;
2972;SDS011;1496;51.404;7.232;2022-09-02T07:55:48;10.43;;;3.20;;
2972;SDS011;1496;51.404;7.232;2022-09-02T07:58:15;7.20;;;3.40;;
2972;SDS011;1496;51.404;7.232;2022-09-02T08:00:42;8.80;;;2.80;;
2972;SDS011;1496;51.404;7.232;2022-09-02T08:03:09;8.83;;;3.27;;
2972;SDS011;1496;51.404;7.232;2022-09-02T08:05:41;6.50;;;3.40;;
2972;SDS011;1496;51.404;7.232;2022-09-02T08:08:09;5.10;;;3.07;;
2972;SDS011;1496;51.404;7.232;2022-09-02T08:10:35;7.30;;;3.47;;
2972;SDS011;1496;51.404;7.232;2022-09-02T08:13:02;5.80;;;2.70;;
2972;SDS011;1496;51.404;7.232;2022-09-02T08:15:30;4.53;;;2.90;;
2972;SDS011;1496;51.404;7.232;2022-09-02T08:17:57;15.10;;;3.10;;
2972;SDS011;1496;51.404;7.232;2022-09-02T08:20:23;6.70;;;3.03;;
2972;SDS011;1496;51.404;7.232;2022-09-02T08:22:49;5.27;;;2.50;;
2972;SDS011;1496;51.404;7.232;2022-09-02T08:25:14;7.40;;;2.93;;
2972;SDS011;1496;51.404;7.232;2022-09-02T08:27:42;8.30;;;2.77;;
2972;SDS011;1496;51.404;7.232;2022-09-02T08:30:08;5.70;;;3.20;;
2972;SDS011;1496;51.404;7.232;2022-09-02T08:32:35;7.80;;;2.50;;
2972;SDS011;1496;51.404;7.232;2022-09-02T08:35:02;8.90;;;3.00;;
2972;SDS011;1496;51.404;7.232;2022-09-02T08:37:29;3.77;;;2.83;;
2972;SDS011;1496;51.404;7.232;2022-09-02T08:39:56;8.53;;;3.17;;
2972;SDS011;1496;51.404;7.232;2022-09-02T08:42:23;9.63;;;2.90;;
2972;SDS011;1496;51.404;7.232;2022-09-02T08:44:53;10.93;;;2.90;;
2972;SDS011;1496;51.404;7.232;2022-09-02T08:47:23;5.50;;;2.50;;
2972;SDS011;1496;51.404;7.232;2022-09-02T08:49:54;10.20;;;2.63;;
2972;SDS011;1496;51.404;7.232;2022-09-02T08:52:32;5.13;;;2.63;;
2972;SDS011;1496;51.404;7.232;2022-09-02T08:55:12;5.43;;;2.43;;
2972;SDS011;1496;51.404;7.232;2022-09-02T08:57:44;3.30;;;2.00;;
2972;SDS011;1496;51.404;7.232;2022-09-02T09:00:10;4.67;;;2.40;;
2972;SDS011;1496;51.404;7.232;2022-09-02T09:05:42;6.13;;;2.87;;
2972;SDS011;1496;51.404;7.232;2022-09-02T09:08:19;6.80;;;2.77;;
2972;SDS011;1496;51.404;7.232;2022-09-02T09:16:59;5.33;;;2.30;;
2972;SDS011;1496;51.404;7.232;2022-09-02T09:19:47;4.77;;;2.30;;
2972;SDS011;1496;51.404;7.232;2022-09-02T09:22:17;10.70;;;2.50;;
2972;SDS011;1496;51.404;7.232;2022-09-02T09:24:45;4.43;;;2.53;;
2972;SDS011;1496;51.404;7.232;2022-09-02T09:27:13;4.03;;;2.33;;
2972;SDS011;1496;51.404;7.232;2022-09-02T09:29:41;6.03;;;2.40;;
2972;SDS011;1496;51.404;7.232;2022-09-02T09:32:17;8.23;;;2.63;;
2972;SDS011;1496;51.404;7.232;2022-09-02T09:34:58;3.77;;;2.47;;
2972;SDS011;1496;51.404;7.232;2022-09-02T09:37:35;2.80;;;1.90;;
2972;SDS011;1496;51.404;7.232;2022-09-02T09:40:04;4.17;;;2.67;;
2972;SDS011;1496;51.404;7.232;2022-09-02T09:42:44;5.63;;;2.30;;
2972;SDS011;1496;51.404;7.232;2022-09-02T09:45:18;5.17;;;2.30;;
2972;SDS011;1496;51.404;7.232;2022-09-02T09:50:42;5.27;;;1.80;;
2972;SDS011;1496;51.404;7.232;2022-09-02T09:55:50;5.80;;;1.83;;
2972;SDS011;1496;51.404;7.232;2022-09-02T09:58:23;3.13;;;1.70;;
2972;SDS011;1496;51.404;7.232;2022-09-02T10:03:42;4.60;;;2.10;;
2972;SDS011;1496;51.404;7.232;2022-09-02T10:06:24;2.20;;;1.70;;
2972;SDS011;1496;51.404;7.232;2022-09-02T10:09:02;4.50;;;1.90;;
2972;SDS011;1496;51.404;7.232;2022-09-02T10:11:30;2.43;;;1.73;;
2972;SDS011;1496;51.404;7.232;2022-09-02T10:14:09;2.43;;;1.57;;
2972;SDS011;1496;51.404;7.232;2022-09-02T10:25:25;2.97;;;1.63;;
2972;SDS011;1496;51.404;7.232;2022-09-02T10:36:44;2.40;;;1.67;;
2972;SDS011;1496;51.404;7.232;2022-09-02T10:50:40;4.30;;;1.70;;
2972;SDS011;1496;51.404;7.232;2022-09-02T10:56:02;2.43;;;2.00;;
2972;SDS011;1496;51.404;7.232;2022-09-02T10:58:41;4.23;;;2.20;;
2972;SDS011;1496;51.404;7.232;2022-09-02T11:01:19;3.20;;;1.80;;
2972;SDS011;1496;51.404;7.232;2022-09-02T11:04:01;2.10;;;1.60;;
2972;SDS011;1496;51.404;7.232;2022-09-02T11:06:42;3.37;;;1.80;;
2972;SDS011;1496;51.404;7.232;2022-09-02T11:14:29;2.33;;;1.50;;
2972;SDS011;1496;51.404;7.232;2022-09-02T11:17:04;3.93;;;1.53;;
2972;SDS011;1496;51.404;7.232;2022-09-02T11:19:42;2.23;;;1.40;;
2972;SDS011;1496;51.404;7.232;2022-09-02T11:27:45;2.50;;;1.60;;
2972;SDS011;1496;51.404;7.232;2022-09-02T11:36:11;2.23;;;1.57;;
2972;SDS011;1496;51.404;7.232;2022-09-02T11:38:46;1.90;;;1.57;;
2972;SDS011;1496;51.404;7.232;2022-09-02T11:41:29;2.77;;;1.53;;
2972;SDS011;1496;51.404;7.232;2022-09-02T11:47:04;2.77;;;1.77;;
2972;SDS011;1496;51.404;7.232;2022-09-02T11:52:26;3.10;;;1.50;;
2972;SDS011;1496;51.404;7.232;2022-09-02T11:55:09;2.37;;;1.60;;
2972;SDS011;1496;51.404;7.232;2022-09-02T11:57:55;3.63;;;2.03;;
2972;SDS011;1496;51.404;7.232;2022-09-02T12:00:29;3.97;;;1.73;;
2972;SDS011;1496;51.404;7.232;2022-09-02T12:03:19;2.33;;;1.70;;
2972;SDS011;1496;51.404;7.232;2022-09-02T12:05:48;2.20;;;1.53;;
2972;SDS011;1496;51.404;7.232;2022-09-02T12:13:43;2.70;;;1.73;;
2972;SDS011;1496;51.404;7.232;2022-09-02T12:21:21;3.97;;;1.57;;
2972;SDS011;1496;51.404;7.232;2022-09-02T12:26:18;2.90;;;1.10;;
2972;SDS011;1496;51.404;7.232;2022-09-02T12:28:49;6.80;;;2.03;;
2972;SDS011;1496;51.404;7.232;2022-09-02T12:33:46;3.20;;;1.27;;
2972;SDS011;1496;51.404;7.232;2022-09-02T12:46:57;2.60;;;1.60;;
2972;SDS011;1496;51.404;7.232;2022-09-02T12:49:50;3.30;;;1.53;;
2972;SDS011;1496;51.404;7.232;2022-09-02T12:57:51;2.70;;;1.67;;
2972;SDS011;1496;51.404;7.232;2022-09-02T13:14:36;2.13;;;1.50;;
2972;SDS011;1496;51.404;7.232;2022-09-02T13:20:47;3.10;;;1.40;;
2972;SDS011;1496;51.404;7.232;2022-09-02T13:31:19;1.70;;;1.30;;
2972;SDS011;1496;51.404;7.232;2022-09-02T13:34:01;2.60;;;1.43;;
2972;SDS011;1496;51.404;7.232;2022-09-02T13:36:44;2.60;;;1.60;;
2972;SDS011;1496;51.404;7.232;2022-09-02T13:39:26;2.30;;;1.70;;
2972;SDS011;1496;51.404;7.232;2022-09-02T13:41:52;3.27;;;1.60;;
2972;SDS011;1496;51.404;7.232;2022-09-02T13:44:20;5.70;;;1.83;;
2972;SDS011;1496;51.404;7.232;2022-09-02T13:46:48;2.73;;;1.50;;
2972;SDS011;1496;51.404;7.232;2022-09-02T13:49:34;4.90;;;1.90;;
2972;SDS011;1496;51.404;7.232;2022-09-02T13:52:01;2.00;;;1.50;;
2972;SDS011;1496;51.404;7.232;2022-09-02T13:54:32;1.80;;;1.30;;
2972;SDS011;1496;51.404;7.232;2022-09-02T13:57:01;2.90;;;1.90;;
2972;SDS011;1496;51.404;7.232;2022-09-02T13:59:39;2.90;;;1.97;;
2972;SDS011;1496;51.404;7.232;2022-09-02T14:05:13;5.63;;;1.77;;
2972;SDS011;1496;51.404;7.232;2022-09-02T14:07:48;3.90;;;1.80;;
2972;SDS011;1496;51.404;7.232;2022-09-02T14:10:18;3.63;;;1.63;;
2972;SDS011;1496;51.404;7.232;2022-09-02T14:12:46;1.83;;;1.60;;
2972;SDS011;1496;51.404;7.232;2022-09-02T14:15:14;3.60;;;1.57;;
2972;SDS011;1496;51.404;7.232;2022-09-02T14:18:05;2.10;;;1.43;;
2972;SDS011;1496;51.404;7.232;2022-09-02T14:21:01;2.80;;;2.00;;
2972;SDS011;1496;51.404;7.232;2022-09-02T14:23:49;2.33;;;1.60;;
2972;SDS011;1496;51.404;7.232;2022-09-02T14:26:22;7.43;;;2.03;;
2972;SDS011;1496;51.404;7.232;2022-09-02T14:28:52;2.90;;;1.90;;
2972;SDS011;1496;51.404;7.232;2022-09-02T14:31:22;3.37;;;1.43;;
2972;SDS011;1496;51.404;7.232;2022-09-02T14:33:53;2.23;;;1.53;;
2972;SDS011;1496;51.404;7.232;2022-09-02T14:39:08;3.30;;;1.93;;
2972;SDS011;1496;51.404;7.232;2022-09-02T14:41:34;2.00;;;1.50;;
2972;SDS011;1496;51.404;7.232;2022-09-02T14:44:10;2.13;;;1.70;;
2972;SDS011;1496;51.404;7.232;2022-09-02T14:49:20;3.97;;;1.67;;
2972;SDS011;1496;51.404;7.232;2022-09-02T14:51:54;4.67;;;1.77;;
2972;SDS011;1496;51.404;7.232;2022-09-02T14:54:37;5.60;;;1.70;;
2972;SDS011;1496;51.404;7.232;2022-09-02T14:57:04;2.70;;;1.73;;
2972;SDS011;1496;51.404;7.232;2022-09-02T14:59:44;3.83;;;1.40;;
2972;SDS011;1496;51.404;7.232;2022-09-02T15:02:32;3.30;;;1.20;;
2972;SDS011;1496;51.404;7.232;2022-09-02T15:04:58;2.40;;;1.60;;
2972;SDS011;1496;51.404;7.232;2022-09-02T15:07:25;3.73;;;1.80;;
2972;SDS011;1496;51.404;7.232;2022-09-02T15:09:51;7.83;;;2.03;;
2972;SDS011;1496;51.404;7.232;2022-09-02T15:12:18;3.50;;;1.83;;
2972;SDS011;1496;51.404;7.232;2022-09-02T15:14:50;3.50;;;1.70;;
2972;SDS011;1496;51.404;7.232;2022-09-02T15:17:16;2.20;;;1.40;;
2972;SDS011;1496;51.404;7.232;2022-09-02T15:19:43;3.00;;;1.97;;
2972;SDS011;1496;51.404;7.232;2022-09-02T15:22:09;2.00;;;1.57;;
2972;SDS011;1496;51.404;7.232;2022-09-02T15:24:34;2.53;;;1.60;;
2972;SDS011;1496;51.404;7.232;2022-09-02T15:27:00;2.50;;;1.60;;
2972;SDS011;1496;51.404;7.232;2022-09-02T15:29:26;3.20;;;1.53;;
2972;SDS011;1496;51.404;7.232;2022-09-02T15:31:52;2.10;;;1.47;;
2972;SDS011;1496;51.404;7.232;2022-09-02T15:34:21;3.90;;;1.97;;
2972;SDS011;1496;51.404;7.232;2022-09-02T15:36:47;2.10;;;1.70;;
2972;SDS011;1496;51.404;7.232;2022-09-02T15:39:12;2.27;;;1.53;;
2972;SDS011;1496;51.404;7.232;2022-09-02T15:41:38;2.53;;;1.70;;
2972;SDS011;1496;51.404;7.232;2022-09-02T15:44:06;4.73;;;1.80;;
2972;SDS011;1496;51.404;7.232;2022-09-02T15:46:33;4.43;;;2.03;;
2972;SDS011;1496;51.404;7.232;2022-09-02T15:49:08;2.57;;;2.13;;
2972;SDS011;1496;51.404;7.232;2022-09-02T15:51:35;2.00;;;1.43;;
2972;SDS011;1496;51.404;7.232;2022-09-02T15:54:05;2.50;;;1.77;;
2972;SDS011;1496;51.404;7.232;2022-09-02T15:56:33;2.90;;;1.53;;
2972;SDS011;1496;51.404;7.232;2022-09-02T15:59:04;2.93;;;1.63;;
2972;SDS011;1496;51.404;7.232;2022-09-02T16:01:34;3.30;;;1.80;;
2972;SDS011;1496;51.404;7.232;2022-09-02T16:04:02;3.10;;;1.77;;
2972;SDS011;1496;51.404;7.232;2022-09-02T16:06:29;5.20;;;2.00;;
2972;SDS011;1496;51.404;7.232;2022-09-02T16:08:56;2.27;;;1.47;;
2972;SDS011;1496;51.404;7.232;2022-09-02T16:11:22;3.37;;;1.50;;
2972;SDS011;1496;51.404;7.232;2022-09-02T16:13:48;2.33;;;1.57;;
2972;SDS011;1496;51.404;7.232;2022-09-02T16:16:15;4.10;;;1.93;;
2972;SDS011;1496;51.404;7.232;2022-09-02T16:18:41;2.60;;;1.57;;
2972;SDS011;1496;51.404;7.232;2022-09-02T16:21:09;3.40;;;1.70;;
2972;SDS011;1496;51.404;7.232;2022-09-02T16:23:35;3.20;;;1.57;;
2972;SDS011;1496;51.404;7.232;2022-09-02T16:26:12;3.50;;;1.60;;
2972;SDS011;1496;51.404;7.232;2022-09-02T16:28:41;2.60;;;1.50;;
2972;SDS011;1496;51.404;7.232;2022-09-02T16:31:08;4.10;;;1.90;;
2972;SDS011;1496;51.404;7.232;2022-09-02T16:33:36;5.60;;;1.57;;
2972;SDS011;1496;51.404;7.232;2022-09-02T16:36:02;2.23;;;1.50;;
2972;SDS011;1496;51.404;7.232;2022-09-02T16:38:29;2.23;;;1.60;;
2972;SDS011;1496;51.404;7.232;2022-09-02T16:40:55;1.87;;;1.67;;
2972;SDS011;1496;51.404;7.232;2022-09-02T16:43:22;3.93;;;1.47;;
2972;SDS011;1496;51.404;7.232;2022-09-02T16:45:49;3.33;;;1.80;;
2972;SDS011;1496;51.404;7.232;2022-09-02T16:48:19;3.10;;;1.60;;
2972;SDS011;1496;51.404;7.232;2022-09-02T16:50:48;2.17;;;1.67;;
2972;SDS011;1496;51.404;7.232;2022-09-02T16:53:14;2.50;;;1.60;;
2972;SDS011;1496;51.404;7.232;2022-09-02T16:55:44;2.93;;;1.57;;
2972;SDS011;1496;51.404;7.232;2022-09-02T16:58:11;2.37;;;1.87;;
2972;SDS011;1496;51.404;7.232;2022-09-02T17:00:39;3.60;;;1.33;;
2972;SDS011;1496;51.404;7.232;2022-09-02T17:03:08;1.73;;;1.50;;
2972;SDS011;1496;51.404;7.232;2022-09-02T17:05:36;3.43;;;1.70;;
2972;SDS011;1496;51.404;7.232;2022-09-02T17:08:02;2.53;;;1.47;;
2972;SDS011;1496;51.404;7.232;2022-09-02T17:10:28;4.07;;;1.40;;
2972;SDS011;1496;51.404;7.232;2022-09-02T17:12:54;6.17;;;1.73;;
2972;SDS011;1496;51.404;7.232;2022-09-02T17:15:21;1.90;;;1.40;;
2972;SDS011;1496;51.404;7.232;2022-09-02T17:17:47;6.37;;;1.70;;
2972;SDS011;1496;51.404;7.232;2022-09-02T17:20:13;3.20;;;1.40;;
2972;SDS011;1496;51.404;7.232;2022-09-02T17:22:39;1.60;;;1.20;;
2972;SDS011;1496;51.404;7.232;2022-09-02T17:25:06;5.27;;;1.40;;
2972;SDS011;1496;51.404;7.232;2022-09-02T17:27:32;9.27;;;2.50;;
2972;SDS011;1496;51.404;7.232;2022-09-02T17:30:00;2.33;;;1.50;;
2972;SDS011;1496;51.404;7.232;2022-09-02T17:32:26;6.93;;;2.03;;
2972;SDS011;1496;51.404;7.232;2022-09-02T17:34:52;4.53;;;1.70;;
2972;SDS011;1496;51.404;7.232;2022-09-02T17:37:18;5.10;;;1.47;;
2972;SDS011;1496;51.404;7.232;2022-09-02T17:39:49;2.37;;;1.50;;
2972;SDS011;1496;51.404;7.232;2022-09-02T17:42:14;2.73;;;1.40;;
2972;SDS011;1496;51.404;7.232;2022-09-02T17:44:40;4.40;;;1.40;;
2972;SDS011;1496;51.404;7.232;2022-09-02T17:47:08;4.23;;;1.50;;
2972;SDS011;1496;51.404;7.232;2022-09-02T17:49:42;1.70;;;1.20;;